Gracefield, Canada
Current Conditions -  °F | °C
As of 4:00 PM on Saturday 22 Nov 2014 (Local Time) from CYND Reporting Station
Ice Pellets Ice Pellets  
Wind Chill: 25°   Ceiling: 3000
Heat Index: 34°   Visibility: 12mi
Dew Point: 27°   Wind: 12mph
Humidity: 75%   Direction: 230°SW
Pressure: 29.88"   Gusts: 17mph
Location:  46.09°N, 76.05°W
Report Text: CYND 222100Z 23010G15KT 12SM -PL OVC030 01/M03 A2988 RMK SC8 SLP121
Loading
Personal Weather Stations






























Interactive Weather Map New forecast layout! Learn more

10-Day Weather Forecast

Advertisements
Track Severe Weather on mobile